sensor_id;sensor_type;location;lat;lon;timestamp;pressure;altitude;pressure_sealevel;temperature;humidity
29825;BME280;16713;52.916;12.834;2024-01-07T00:00:47;101400.22;;;-2.17;58.85
29825;BME280;16713;52.916;12.834;2024-01-07T00:03:14;101406.22;;;-1.90;59.02
29825;BME280;16713;52.916;12.834;2024-01-07T00:05:41;101408.88;;;-2.15;59.58
29825;BME280;16713;52.916;12.834;2024-01-07T00:08:07;101404.84;;;-2.08;58.96
29825;BME280;16713;52.916;12.834;2024-01-07T00:10:34;101413.19;;;-2.09;59.76
29825;BME280;16713;52.916;12.834;2024-01-07T00:13:00;101410.78;;;-2.06;58.75
29825;BME280;16713;52.916;12.834;2024-01-07T00:15:27;101421.78;;;-2.17;59.40
29825;BME280;16713;52.916;12.834;2024-01-07T00:17:53;101418.22;;;-2.28;59.78
29825;BME280;16713;52.916;12.834;2024-01-07T00:20:20;101426.59;;;-2.24;60.01
29825;BME280;16713;52.916;12.834;2024-01-07T00:22:47;101433.47;;;-2.53;58.87
29825;BME280;16713;52.916;12.834;2024-01-07T00:25:13;101436.72;;;-2.51;59.84
29825;BME280;16713;52.916;12.834;2024-01-07T00:27:40;101436.16;;;-2.58;58.74
29825;BME280;16713;52.916;12.834;2024-01-07T00:30:06;101438.69;;;-2.37;60.20
29825;BME280;16713;52.916;12.834;2024-01-07T00:32:33;101443.72;;;-2.50;59.09
29825;BME280;16713;52.916;12.834;2024-01-07T00:34:59;101445.09;;;-2.48;59.00
29825;BME280;16713;52.916;12.834;2024-01-07T00:37:27;101447.78;;;-2.48;59.50
29825;BME280;16713;52.916;12.834;2024-01-07T00:39:53;101444.91;;;-2.31;58.67
29825;BME280;16713;52.916;12.834;2024-01-07T00:42:20;101443.16;;;-2.62;59.17
29825;BME280;16713;52.916;12.834;2024-01-07T00:44:47;101456.47;;;-2.41;58.92
29825;BME280;16713;52.916;12.834;2024-01-07T00:47:13;101453.00;;;-2.31;60.16
29825;BME280;16713;52.916;12.834;2024-01-07T00:49:40;101465.66;;;-2.32;59.16
29825;BME280;16713;52.916;12.834;2024-01-07T00:52:07;101460.91;;;-2.61;59.18
29825;BME280;16713;52.916;12.834;2024-01-07T00:54:35;101461.00;;;-2.93;59.66
29825;BME280;16713;52.916;12.834;2024-01-07T00:57:02;101472.13;;;-2.75;59.53
29825;BME280;16713;52.916;12.834;2024-01-07T00:59:29;101464.06;;;-2.75;59.86
29825;BME280;16713;52.916;12.834;2024-01-07T01:01:56;101466.88;;;-2.54;60.41
29825;BME280;16713;52.916;12.834;2024-01-07T01:04:22;101469.44;;;-2.75;59.23
29825;BME280;16713;52.916;12.834;2024-01-07T01:06:49;101485.09;;;-2.71;58.88
29825;BME280;16713;52.916;12.834;2024-01-07T01:09:15;101480.81;;;-2.67;59.76
29825;BME280;16713;52.916;12.834;2024-01-07T01:11:42;101479.00;;;-2.57;59.15
29825;BME280;16713;52.916;12.834;2024-01-07T01:14:08;101478.41;;;-2.64;59.28
29825;BME280;16713;52.916;12.834;2024-01-07T01:16:35;101483.38;;;-2.88;59.52
29825;BME280;16713;52.916;12.834;2024-01-07T01:19:01;101485.88;;;-2.76;59.21
29825;BME280;16713;52.916;12.834;2024-01-07T01:21:28;101492.59;;;-2.79;59.89
29825;BME280;16713;52.916;12.834;2024-01-07T01:23:54;101490.56;;;-2.56;59.49
29825;BME280;16713;52.916;12.834;2024-01-07T01:26:21;101491.13;;;-2.54;59.13
29825;BME280;16713;52.916;12.834;2024-01-07T01:28:47;101493.84;;;-2.49;59.00
29825;BME280;16713;52.916;12.834;2024-01-07T01:31:14;101496.44;;;-2.64;59.03
29825;BME280;16713;52.916;12.834;2024-01-07T01:33:41;101500.84;;;-2.48;59.54
29825;BME280;16713;52.916;12.834;2024-01-07T01:36:08;101502.63;;;-2.69;59.33
29825;BME280;16713;52.916;12.834;2024-01-07T01:38:35;101501.03;;;-2.65;59.02
29825;BME280;16713;52.916;12.834;2024-01-07T01:41:01;101503.97;;;-2.66;59.53
29825;BME280;16713;52.916;12.834;2024-01-07T01:43:28;101506.91;;;-2.68;59.83
29825;BME280;16713;52.916;12.834;2024-01-07T01:45:56;101506.69;;;-2.61;58.63
29825;BME280;16713;52.916;12.834;2024-01-07T01:48:24;101516.13;;;-2.64;59.26
29825;BME280;16713;52.916;12.834;2024-01-07T01:50:51;101516.69;;;-2.62;59.20
29825;BME280;16713;52.916;12.834;2024-01-07T01:53:20;101520.41;;;-2.63;59.23
29825;BME280;16713;52.916;12.834;2024-01-07T01:55:46;101521.97;;;-2.72;60.08
29825;BME280;16713;52.916;12.834;2024-01-07T01:58:13;101521.94;;;-2.77;59.45
29825;BME280;16713;52.916;12.834;2024-01-07T02:00:40;101517.91;;;-2.80;59.03
29825;BME280;16713;52.916;12.834;2024-01-07T02:03:07;101526.81;;;-2.74;60.31
29825;BME280;16713;52.916;12.834;2024-01-07T02:05:33;101517.19;;;-2.65;59.51
29825;BME280;16713;52.916;12.834;2024-01-07T02:08:00;101518.50;;;-2.67;59.93
29825;BME280;16713;52.916;12.834;2024-01-07T02:10:26;101524.97;;;-2.68;59.23
29825;BME280;16713;52.916;12.834;2024-01-07T02:12:57;101523.34;;;-2.69;59.54
29825;BME280;16713;52.916;12.834;2024-01-07T02:15:23;101527.38;;;-2.72;59.84
29825;BME280;16713;52.916;12.834;2024-01-07T02:17:50;101534.94;;;-2.69;59.45
29825;BME280;16713;52.916;12.834;2024-01-07T02:20:16;101524.97;;;-2.68;59.37
29825;BME280;16713;52.916;12.834;2024-01-07T02:22:43;101531.72;;;-2.66;59.72
29825;BME280;16713;52.916;12.834;2024-01-07T02:25:09;101526.59;;;-2.67;59.63
29825;BME280;16713;52.916;12.834;2024-01-07T02:27:36;101536.06;;;-2.60;60.12
29825;BME280;16713;52.916;12.834;2024-01-07T02:30:02;101531.50;;;-2.59;59.31
29825;BME280;16713;52.916;12.834;2024-01-07T02:32:29;101528.31;;;-2.51;58.86
29825;BME280;16713;52.916;12.834;2024-01-07T02:35:00;101527.97;;;-2.60;59.32
29825;BME280;16713;52.916;12.834;2024-01-07T02:37:27;101540.94;;;-2.52;59.84
29825;BME280;16713;52.916;12.834;2024-01-07T02:39:53;101539.56;;;-2.59;59.72
29825;BME280;16713;52.916;12.834;2024-01-07T02:42:27;101533.09;;;-2.58;59.73
29825;BME280;16713;52.916;12.834;2024-01-07T02:44:54;101540.19;;;-2.42;60.48
29825;BME280;16713;52.916;12.834;2024-01-07T02:47:20;101537.25;;;-2.46;60.06
29825;BME280;16713;52.916;12.834;2024-01-07T02:49:46;101544.78;;;-2.48;60.13
29825;BME280;16713;52.916;12.834;2024-01-07T02:52:13;101546.44;;;-2.37;59.44
29825;BME280;16713;52.916;12.834;2024-01-07T02:54:40;101550.16;;;-2.48;60.20
29825;BME280;16713;52.916;12.834;2024-01-07T02:57:06;101545.06;;;-2.44;60.19
29825;BME280;16713;52.916;12.834;2024-01-07T02:59:33;101550.50;;;-2.34;59.51
29825;BME280;16713;52.916;12.834;2024-01-07T03:01:59;101555.84;;;-2.44;59.53
29825;BME280;16713;52.916;12.834;2024-01-07T03:04:26;101561.22;;;-2.44;60.41
29825;BME280;16713;52.916;12.834;2024-01-07T03:06:52;101564.53;;;-2.32;61.01
29825;BME280;16713;52.916;12.834;2024-01-07T03:09:19;101561.25;;;-2.34;60.13
29825;BME280;16713;52.916;12.834;2024-01-07T03:11:45;101557.09;;;-2.57;59.55
29825;BME280;16713;52.916;12.834;2024-01-07T03:14:11;101560.34;;;-2.55;59.59
29825;BME280;16713;52.916;12.834;2024-01-07T03:16:38;101557.44;;;-2.43;61.32
29825;BME280;16713;52.916;12.834;2024-01-07T03:19:05;101560.47;;;-2.35;61.38
29825;BME280;16713;52.916;12.834;2024-01-07T03:21:32;101565.94;;;-2.25;60.38
29825;BME280;16713;52.916;12.834;2024-01-07T03:23:58;101562.38;;;-2.30;59.98
29825;BME280;16713;52.916;12.834;2024-01-07T03:26:29;101564.75;;;-2.39;60.48
29825;BME280;16713;52.916;12.834;2024-01-07T03:28:56;101569.97;;;-2.22;60.68
29825;BME280;16713;52.916;12.834;2024-01-07T03:31:26;101565.09;;;-2.25;59.79
29825;BME280;16713;52.916;12.834;2024-01-07T03:33:52;101555.41;;;-2.21;61.10
29825;BME280;16713;52.916;12.834;2024-01-07T03:36:19;101552.22;;;-2.13;60.99
29825;BME280;16713;52.916;12.834;2024-01-07T03:38:45;101551.69;;;-2.10;61.08
29825;BME280;16713;52.916;12.834;2024-01-07T03:41:16;101551.47;;;-2.04;60.19
29825;BME280;16713;52.916;12.834;2024-01-07T03:43:47;101558.78;;;-1.99;60.42
29825;BME280;16713;52.916;12.834;2024-01-07T03:46:15;101552.59;;;-1.95;60.56
29825;BME280;16713;52.916;12.834;2024-01-07T03:48:42;101550.69;;;-1.94;60.23
29825;BME280;16713;52.916;12.834;2024-01-07T03:51:09;101563.66;;;-1.96;59.28
29825;BME280;16713;52.916;12.834;2024-01-07T03:53:35;101565.84;;;-1.88;59.76
29825;BME280;16713;52.916;12.834;2024-01-07T03:56:02;101562.09;;;-1.82;60.39
29825;BME280;16713;52.916;12.834;2024-01-07T03:58:29;101564.78;;;-1.82;59.93
29825;BME280;16713;52.916;12.834;2024-01-07T04:00:55;101577.47;;;-1.78;58.30
29825;BME280;16713;52.916;12.834;2024-01-07T04:03:22;101573.94;;;-1.78;58.81
29825;BME280;16713;52.916;12.834;2024-01-07T04:05:48;101573.97;;;-1.73;59.10
29825;BME280;16713;52.916;12.834;2024-01-07T04:08:15;101573.97;;;-1.73;59.58
29825;BME280;16713;52.916;12.834;2024-01-07T04:10:42;101585.34;;;-1.66;59.92
29825;BME280;16713;52.916;12.834;2024-01-07T04:13:08;101583.72;;;-1.67;58.38
29825;BME280;16713;52.916;12.834;2024-01-07T04:15:35;101578.31;;;-1.62;59.15
29825;BME280;16713;52.916;12.834;2024-01-07T04:18:04;101586.41;;;-1.62;58.96
29825;BME280;16713;52.916;12.834;2024-01-07T04:20:31;101583.19;;;-1.64;59.37
29825;BME280;16713;52.916;12.834;2024-01-07T04:22:58;101585.63;;;-1.63;58.83
29825;BME280;16713;52.916;12.834;2024-01-07T04:25:24;101587.72;;;-1.75;59.61
29825;BME280;16713;52.916;12.834;2024-01-07T04:27:51;101595.56;;;-1.68;59.77
29825;BME280;16713;52.916;12.834;2024-01-07T04:30:18;101592.59;;;-1.72;60.17
29825;BME280;16713;52.916;12.834;2024-01-07T04:32:44;101597.47;;;-1.64;59.97
29825;BME280;16713;52.916;12.834;2024-01-07T04:35:11;101598.25;;;-1.68;58.72
29825;BME280;16713;52.916;12.834;2024-01-07T04:37:38;101599.63;;;-1.71;59.18
29825;BME280;16713;52.916;12.834;2024-01-07T04:40:05;101604.69;;;-1.79;59.81
29825;BME280;16713;52.916;12.834;2024-01-07T04:42:32;101605.81;;;-1.75;59.31
29825;BME280;16713;52.916;12.834;2024-01-07T04:44:59;101609.06;;;-1.68;59.83
29825;BME280;16713;52.916;12.834;2024-01-07T04:47:27;101601.53;;;-1.66;58.93
29825;BME280;16713;52.916;12.834;2024-01-07T04:49:54;101606.13;;;-1.62;60.69
29825;BME280;16713;52.916;12.834;2024-01-07T04:52:24;101610.44;;;-1.66;59.03
29825;BME280;16713;52.916;12.834;2024-01-07T04:54:55;101616.09;;;-1.57;60.32
29825;BME280;16713;52.916;12.834;2024-01-07T04:57:22;101617.44;;;-1.65;60.24
29825;BME280;16713;52.916;12.834;2024-01-07T04:59:50;101616.09;;;-1.57;59.34
29825;BME280;16713;52.916;12.834;2024-01-07T05:02:16;101626.13;;;-1.53;59.92
29825;BME280;16713;52.916;12.834;2024-01-07T05:04:43;101630.19;;;-1.50;60.14
29825;BME280;16713;52.916;12.834;2024-01-07T05:07:10;101623.69;;;-1.49;59.92
29825;BME280;16713;52.916;12.834;2024-01-07T05:09:36;101620.97;;;-1.54;60.04
29825;BME280;16713;52.916;12.834;2024-01-07T05:12:03;101630.41;;;-1.57;59.13
29825;BME280;16713;52.916;12.834;2024-01-07T05:14:29;101633.38;;;-1.58;60.63
29825;BME280;16713;52.916;12.834;2024-01-07T05:16:56;101637.44;;;-1.56;58.83
29825;BME280;16713;52.916;12.834;2024-01-07T05:19:22;101635.00;;;-1.57;60.44
29825;BME280;16713;52.916;12.834;2024-01-07T05:21:49;101645.50;;;-1.66;59.80
29825;BME280;16713;52.916;12.834;2024-01-07T05:24:16;101636.88;;;-1.63;60.79
29825;BME280;16713;52.916;12.834;2024-01-07T05:26:43;101646.06;;;-1.54;60.42
29825;BME280;16713;52.916;12.834;2024-01-07T05:29:11;101648.22;;;-1.61;60.39
29825;BME280;16713;52.916;12.834;2024-01-07T05:31:39;101640.88;;;-1.75;60.88
29825;BME280;16713;52.916;12.834;2024-01-07T05:34:06;101647.88;;;-1.74;60.89
29825;BME280;16713;52.916;12.834;2024-01-07T05:36:33;101642.94;;;-1.87;61.62
29825;BME280;16713;52.916;12.834;2024-01-07T05:38:59;101641.91;;;-1.81;61.17
29825;BME280;16713;52.916;12.834;2024-01-07T05:41:26;101634.97;;;-1.67;62.16
29825;BME280;16713;52.916;12.834;2024-01-07T05:43:52;101637.66;;;-1.67;62.26
29825;BME280;16713;52.916;12.834;2024-01-07T05:46:19;101642.47;;;-1.74;61.41
29825;BME280;16713;52.916;12.834;2024-01-07T05:48:47;101648.44;;;-1.62;61.02
29825;BME280;16713;52.916;12.834;2024-01-07T05:51:15;101643.53;;;-1.80;61.16
29825;BME280;16713;52.916;12.834;2024-01-07T05:53:44;101641.94;;;-1.71;61.55
29825;BME280;16713;52.916;12.834;2024-01-07T05:56:11;101638.34;;;-1.92;61.50
29825;BME280;16713;52.916;12.834;2024-01-07T05:58:38;101643.28;;;-1.79;61.67
29825;BME280;16713;52.916;12.834;2024-01-07T06:01:06;101646.81;;;-1.68;61.37
29825;BME280;16713;52.916;12.834;2024-01-07T06:03:34;101647.56;;;-1.78;61.78
29825;BME280;16713;52.916;12.834;2024-01-07T06:06:01;101651.34;;;-1.84;61.79
29825;BME280;16713;52.916;12.834;2024-01-07T06:08:27;101655.41;;;-1.76;62.06
29825;BME280;16713;52.916;12.834;2024-01-07T06:10:54;101655.16;;;-1.75;61.55
29825;BME280;16713;52.916;12.834;2024-01-07T06:13:20;101657.81;;;-1.85;62.32
29825;BME280;16713;52.916;12.834;2024-01-07T06:15:47;101658.66;;;-1.74;62.12
29825;BME280;16713;52.916;12.834;2024-01-07T06:18:13;101664.13;;;-1.64;61.40
29825;BME280;16713;52.916;12.834;2024-01-07T06:20:40;101654.66;;;-1.67;61.42
29825;BME280;16713;52.916;12.834;2024-01-07T06:23:06;101657.06;;;-1.75;61.66
29825;BME280;16713;52.916;12.834;2024-01-07T06:25:33;101661.91;;;-1.72;61.09
29825;BME280;16713;52.916;12.834;2024-01-07T06:27:59;101658.97;;;-1.71;62.07
29825;BME280;16713;52.916;12.834;2024-01-07T06:30:26;101664.09;;;-1.69;60.80
29825;BME280;16713;52.916;12.834;2024-01-07T06:32:53;101670.03;;;-1.67;61.00
29825;BME280;16713;52.916;12.834;2024-01-07T06:35:19;101674.56;;;-1.73;61.50
29825;BME280;16713;52.916;12.834;2024-01-07T06:37:46;101677.03;;;-1.66;61.49
29825;BME280;16713;52.916;12.834;2024-01-07T06:40:12;101677.88;;;-1.66;62.02
29825;BME280;16713;52.916;12.834;2024-01-07T06:42:39;101679.75;;;-1.66;61.88
29825;BME280;16713;52.916;12.834;2024-01-07T06:45:06;101674.34;;;-1.66;61.23
29825;BME280;16713;52.916;12.834;2024-01-07T06:47:32;101679.22;;;-1.63;61.48
29825;BME280;16713;52.916;12.834;2024-01-07T06:49:59;101678.97;;;-1.57;62.26
29825;BME280;16713;52.916;12.834;2024-01-07T06:52:26;101682.22;;;-1.60;62.45
29825;BME280;16713;52.916;12.834;2024-01-07T06:54:52;101686.50;;;-1.59;61.59
29825;BME280;16713;52.916;12.834;2024-01-07T06:57:19;101692.75;;;-1.53;62.35
29825;BME280;16713;52.916;12.834;2024-01-07T06:59:45;101698.72;;;-1.46;61.12
29825;BME280;16713;52.916;12.834;2024-01-07T07:02:12;101692.25;;;-1.45;60.96
29825;BME280;16713;52.916;12.834;2024-01-07T07:04:38;101702.50;;;-1.47;61.84
29825;BME280;16713;52.916;12.834;2024-01-07T07:07:05;101699.75;;;-1.52;61.49
29825;BME280;16713;52.916;12.834;2024-01-07T07:09:31;101709.25;;;-1.50;61.11
29825;BME280;16713;52.916;12.834;2024-01-07T07:11:59;101706.28;;;-1.48;61.58
29825;BME280;16713;52.916;12.834;2024-01-07T07:14:26;101706.53;;;-1.50;60.76
29825;BME280;16713;52.916;12.834;2024-01-07T07:16:52;101704.09;;;-1.46;60.80
29825;BME280;16713;52.916;12.834;2024-01-07T07:19:19;101714.66;;;-1.40;61.41
29825;BME280;16713;52.916;12.834;2024-01-07T07:21:45;101725.47;;;-1.40;61.15
29825;BME280;16713;52.916;12.834;2024-01-07T07:24:12;101715.78;;;-1.36;60.83
29825;BME280;16713;52.916;12.834;2024-01-07T07:26:38;101728.47;;;-1.31;62.10
29825;BME280;16713;52.916;12.834;2024-01-07T07:29:08;101728.75;;;-1.33;61.80
29825;BME280;16713;52.916;12.834;2024-01-07T07:31:36;101727.38;;;-1.30;61.60
29825;BME280;16713;52.916;12.834;2024-01-07T07:34:09;101730.09;;;-1.35;60.48
29825;BME280;16713;52.916;12.834;2024-01-07T07:36:35;101744.34;;;-1.40;61.02
29825;BME280;16713;52.916;12.834;2024-01-07T07:39:02;101739.28;;;-1.31;61.99
29825;BME280;16713;52.916;12.834;2024-01-07T07:41:28;101746.56;;;-1.37;60.91
29825;BME280;16713;52.916;12.834;2024-01-07T07:43:55;101734.38;;;-1.39;60.91
29825;BME280;16713;52.916;12.834;2024-01-07T07:46:21;101738.19;;;-1.35;60.71
29825;BME280;16713;52.916;12.834;2024-01-07T07:48:48;101737.41;;;-1.31;61.12
29825;BME280;16713;52.916;12.834;2024-01-07T07:51:15;101747.94;;;-1.24;61.00
29825;BME280;16713;52.916;12.834;2024-01-07T07:53:41;101753.63;;;-1.25;61.85
29825;BME280;16713;52.916;12.834;2024-01-07T07:56:08;101747.69;;;-1.22;62.63
29825;BME280;16713;52.916;12.834;2024-01-07T07:58:34;101754.41;;;-1.25;61.59
29825;BME280;16713;52.916;12.834;2024-01-07T08:01:01;101756.56;;;-1.32;61.26
29825;BME280;16713;52.916;12.834;2024-01-07T08:03:28;101770.34;;;-1.28;61.66
29825;BME280;16713;52.916;12.834;2024-01-07T08:05:55;101767.88;;;-1.30;61.85
29825;BME280;16713;52.916;12.834;2024-01-07T08:08:21;101775.41;;;-1.37;62.18
29825;BME280;16713;52.916;12.834;2024-01-07T08:10:48;101765.66;;;-1.38;62.10
29825;BME280;16713;52.916;12.834;2024-01-07T08:13:14;101772.47;;;-1.31;62.85
29825;BME280;16713;52.916;12.834;2024-01-07T08:15:41;101776.22;;;-1.37;62.12
29825;BME280;16713;52.916;12.834;2024-01-07T08:18:07;101777.53;;;-1.44;61.85
29825;BME280;16713;52.916;12.834;2024-01-07T08:20:34;101777.00;;;-1.41;63.40
29825;BME280;16713;52.916;12.834;2024-01-07T08:23:00;101772.69;;;-1.42;61.88
29825;BME280;16713;52.916;12.834;2024-01-07T08:25:27;101778.03;;;-1.47;62.62
29825;BME280;16713;52.916;12.834;2024-01-07T08:27:53;101772.94;;;-1.44;62.24
29825;BME280;16713;52.916;12.834;2024-01-07T08:30:20;101772.31;;;-1.56;62.21
29825;BME280;16713;52.916;12.834;2024-01-07T08:32:46;101779.41;;;-1.50;62.65
29825;BME280;16713;52.916;12.834;2024-01-07T08:35:13;101774.56;;;-1.43;62.85
29825;BME280;16713;52.916;12.834;2024-01-07T08:37:43;101784.56;;;-1.43;62.61
29825;BME280;16713;52.916;12.834;2024-01-07T08:40:10;101787.53;;;-1.45;63.33
29825;BME280;16713;52.916;12.834;2024-01-07T08:42:37;101782.38;;;-1.41;64.02
29825;BME280;16713;52.916;12.834;2024-01-07T08:45:04;101779.44;;;-1.45;63.27
29825;BME280;16713;52.916;12.834;2024-01-07T08:47:30;101778.13;;;-1.37;63.62
29825;BME280;16713;52.916;12.834;2024-01-07T08:50:03;101778.41;;;-1.34;63.91
29825;BME280;16713;52.916;12.834;2024-01-07T08:52:29;101784.06;;;-1.35;63.89
29825;BME280;16713;52.916;12.834;2024-01-07T08:54:56;101783.22;;;-1.41;63.41
29825;BME280;16713;52.916;12.834;2024-01-07T08:57:22;101785.09;;;-1.41;63.18
29825;BME280;16713;52.916;12.834;2024-01-07T08:59:49;101783.03;;;-1.24;62.84
29825;BME280;16713;52.916;12.834;2024-01-07T09:02:16;101787.97;;;-1.11;63.21
29825;BME280;16713;52.916;12.834;2024-01-07T09:04:43;101796.88;;;-1.05;63.07
29825;BME280;16713;52.916;12.834;2024-01-07T09:07:09;101800.13;;;-1.08;63.68
29825;BME280;16713;52.916;12.834;2024-01-07T09:09:36;101800.19;;;-0.98;63.44
29825;BME280;16713;52.916;12.834;2024-01-07T09:12:02;101799.63;;;-1.00;62.54
29825;BME280;16713;52.916;12.834;2024-01-07T09:14:30;101808.00;;;-0.97;63.83
29825;BME280;16713;52.916;12.834;2024-01-07T09:16:56;101800.34;;;-1.15;63.77
29825;BME280;16713;52.916;12.834;2024-01-07T09:19:23;101797.66;;;-1.15;63.27
29825;BME280;16713;52.916;12.834;2024-01-07T09:21:49;101803.03;;;-1.20;63.18
29825;BME280;16713;52.916;12.834;2024-01-07T09:24:16;101801.97;;;-1.14;64.07
29825;BME280;16713;52.916;12.834;2024-01-07T09:26:42;101807.69;;;-1.05;63.53
29825;BME280;16713;52.916;12.834;2024-01-07T09:29:09;101809.84;;;-1.12;64.15
29825;BME280;16713;52.916;12.834;2024-01-07T09:31:36;101805.78;;;-1.10;63.88
29825;BME280;16713;52.916;12.834;2024-01-07T09:34:03;101807.63;;;-1.15;63.25
29825;BME280;16713;52.916;12.834;2024-01-07T09:36:33;101811.97;;;-1.14;64.03
29825;BME280;16713;52.916;12.834;2024-01-07T09:39:01;101804.44;;;-1.12;64.56
29825;BME280;16713;52.916;12.834;2024-01-07T09:41:31;101802.53;;;-1.12;64.92
29825;BME280;16713;52.916;12.834;2024-01-07T09:43:58;101806.06;;;-1.11;63.90
29825;BME280;16713;52.916;12.834;2024-01-07T09:46:29;101805.53;;;-1.08;64.99
29825;BME280;16713;52.916;12.834;2024-01-07T09:48:56;101812.25;;;-1.06;65.10
29825;BME280;16713;52.916;12.834;2024-01-07T09:51:23;101801.78;;;-0.97;64.90
29825;BME280;16713;52.916;12.834;2024-01-07T09:53:53;101801.78;;;-0.97;65.36
29825;BME280;16713;52.916;12.834;2024-01-07T09:56:25;101803.69;;;-0.93;64.00
29825;BME280;16713;52.916;12.834;2024-01-07T09:58:52;101803.16;;;-0.90;64.45
29825;BME280;16713;52.916;12.834;2024-01-07T10:01:19;101801.28;;;-0.89;65.19
29825;BME280;16713;52.916;12.834;2024-01-07T10:03:46;101807.53;;;-0.84;64.09
29825;BME280;16713;52.916;12.834;2024-01-07T10:06:13;101802.91;;;-0.83;64.26
29825;BME280;16713;52.916;12.834;2024-01-07T10:08:40;101804.59;;;-0.77;64.42
29825;BME280;16713;52.916;12.834;2024-01-07T10:11:06;101795.16;;;-0.70;65.70
29825;BME280;16713;52.916;12.834;2024-01-07T10:13:36;101794.91;;;-0.63;63.50
29825;BME280;16713;52.916;12.834;2024-01-07T10:16:03;101796.78;;;-0.59;63.09
29825;BME280;16713;52.916;12.834;2024-01-07T10:18:30;101793.53;;;-0.61;63.68
29825;BME280;16713;52.916;12.834;2024-01-07T10:21:02;101791.91;;;-0.67;64.88
29825;BME280;16713;52.916;12.834;2024-01-07T10:23:30;101785.16;;;-0.69;63.32
29825;BME280;16713;52.916;12.834;2024-01-07T10:25:57;101787.56;;;-0.73;64.53
29825;BME280;16713;52.916;12.834;2024-01-07T10:28:28;101796.75;;;-0.79;64.03
29825;BME280;16713;52.916;12.834;2024-01-07T10:30:55;101793.53;;;-0.71;64.38
29825;BME280;16713;52.916;12.834;2024-01-07T10:33:21;101785.41;;;-0.76;63.30
29825;BME280;16713;52.916;12.834;2024-01-07T10:36:01;101788.41;;;-0.72;64.12
29825;BME280;16713;52.916;12.834;2024-01-07T10:38:31;101788.91;;;-0.75;64.78
29825;BME280;16713;52.916;12.834;2024-01-07T10:41:00;101790.31;;;-0.63;65.08
29825;BME280;16713;52.916;12.834;2024-01-07T10:43:29;101786.78;;;-0.68;63.90
29825;BME280;16713;52.916;12.834;2024-01-07T10:46:00;101793.81;;;-0.72;63.06
29825;BME280;16713;52.916;12.834;2024-01-07T10:48:30;101789.50;;;-0.58;63.33
29825;BME280;16713;52.916;12.834;2024-01-07T10:51:00;101792.75;;;-0.51;64.49
29825;BME280;16713;52.916;12.834;2024-01-07T10:53:30;101782.22;;;-0.48;64.13
29825;BME280;16713;52.916;12.834;2024-01-07T10:56:02;101794.13;;;-0.44;64.82
29825;BME280;16713;52.916;12.834;2024-01-07T10:58:32;101787.31;;;-0.71;63.49
29825;BME280;16713;52.916;12.834;2024-01-07T11:01:02;101788.41;;;-0.62;64.85
29825;BME280;16713;52.916;12.834;2024-01-07T11:06:20;101792.41;;;-0.75;64.37
29825;BME280;16713;52.916;12.834;2024-01-07T11:09:14;101799.38;;;-0.94;62.54
29825;BME280;16713;52.916;12.834;2024-01-07T11:11:44;101791.03;;;-0.87;64.03
29825;BME280;16713;52.916;12.834;2024-01-07T11:14:33;101782.94;;;-0.82;64.34
29825;BME280;16713;52.916;12.834;2024-01-07T11:17:00;101782.97;;;-0.67;62.93
29825;BME280;16713;52.916;12.834;2024-01-07T11:19:26;101774.09;;;-0.58;63.28
29825;BME280;16713;52.916;12.834;2024-01-07T11:24:59;101780.91;;;-0.45;63.32
29825;BME280;16713;52.916;12.834;2024-01-07T11:27:26;101781.72;;;-0.35;63.39
29825;BME280;16713;52.916;12.834;2024-01-07T11:29:55;101776.28;;;-0.50;61.41
29825;BME280;16713;52.916;12.834;2024-01-07T11:32:23;101779.56;;;-0.33;62.11
29825;BME280;16713;52.916;12.834;2024-01-07T11:34:53;101780.63;;;-0.24;62.03
29825;BME280;16713;52.916;12.834;2024-01-07T11:37:20;101777.66;;;-0.22;61.93
29825;BME280;16713;52.916;12.834;2024-01-07T11:39:50;101783.34;;;-0.19;62.23
29825;BME280;16713;52.916;12.834;2024-01-07T11:42:17;101786.84;;;-0.28;61.40
29825;BME280;16713;52.916;12.834;2024-01-07T11:44:53;101788.19;;;-0.26;62.16
29825;BME280;16713;52.916;12.834;2024-01-07T11:47:21;101788.22;;;-0.16;61.60
29825;BME280;16713;52.916;12.834;2024-01-07T11:49:48;101776.88;;;-0.13;62.02
29825;BME280;16713;52.916;12.834;2024-01-07T11:52:15;101773.09;;;-0.07;61.38
29825;BME280;16713;52.916;12.834;2024-01-07T11:54:42;101786.03;;;-0.29;60.45
29825;BME280;16713;52.916;12.834;2024-01-07T11:57:10;101787.09;;;-0.45;62.04
29825;BME280;16713;52.916;12.834;2024-01-07T11:59:36;101787.66;;;-0.43;61.02
29825;BME280;16713;52.916;12.834;2024-01-07T12:02:05;101778.19;;;-0.30;61.14
29825;BME280;16713;52.916;12.834;2024-01-07T12:04:32;101785.50;;;-0.31;61.47
29825;BME280;16713;52.916;12.834;2024-01-07T12:07:00;101778.72;;;-0.43;60.34
29825;BME280;16713;52.916;12.834;2024-01-07T12:09:27;101789.81;;;-0.40;60.58
29825;BME280;16713;52.916;12.834;2024-01-07T12:11:54;101782.78;;;-0.41;60.85
29825;BME280;16713;52.916;12.834;2024-01-07T12:14:21;101773.56;;;-0.60;61.81
29825;BME280;16713;52.916;12.834;2024-01-07T12:16:48;101767.53;;;-0.92;60.45
29825;BME280;16713;52.916;12.834;2024-01-07T12:19:14;101775.19;;;-0.54;60.59
29825;BME280;16713;52.916;12.834;2024-01-07T12:21:41;101767.56;;;-0.87;61.32
29825;BME280;16713;52.916;12.834;2024-01-07T12:24:07;101771.84;;;-0.86;61.60
29825;BME280;16713;52.916;12.834;2024-01-07T12:26:34;101775.41;;;-0.70;61.17
29825;BME280;16713;52.916;12.834;2024-01-07T12:29:00;101765.47;;;-0.55;60.84
29825;BME280;16713;52.916;12.834;2024-01-07T12:31:31;101765.47;;;-0.40;61.58
29825;BME280;16713;52.916;12.834;2024-01-07T12:33:58;101765.22;;;-0.28;61.36
29825;BME280;16713;52.916;12.834;2024-01-07T12:36:25;101772.53;;;-0.24;60.85
29825;BME280;16713;52.916;12.834;2024-01-07T12:38:52;101766.84;;;-0.27;60.92
29825;BME280;16713;52.916;12.834;2024-01-07T12:41:22;101764.69;;;-0.25;60.30
29825;BME280;16713;52.916;12.834;2024-01-07T12:43:51;101770.03;;;-0.65;60.16
29825;BME280;16713;52.916;12.834;2024-01-07T12:46:18;101773.06;;;-0.32;61.40